createdAt,value
2023-02-02T00:00:34.373Z,1.23
2023-02-02T00:03:01.388Z,1.18
2023-02-02T00:05:28.269Z,1.07
2023-02-02T00:07:55.109Z,1.16
2023-02-02T00:10:21.896Z,1.08
2023-02-02T00:12:49.000Z,1.06
2023-02-02T00:15:15.820Z,1.02
2023-02-02T00:17:42.763Z,1.25
2023-02-02T00:20:12.924Z,0.98
2023-02-02T00:22:40.051Z,1.01
2023-02-02T00:25:07.680Z,1.13
2023-02-02T00:27:34.728Z,1.01
2023-02-02T00:30:03.009Z,1.06
2023-02-02T00:32:29.841Z,0.96
2023-02-02T00:34:56.628Z,0.86
2023-02-02T00:37:23.579Z,0.80
2023-02-02T00:39:50.387Z,0.76
2023-02-02T00:42:17.514Z,0.76
2023-02-02T00:45:03.034Z,0.90
2023-02-02T00:47:32.032Z,0.93
2023-02-02T00:50:05.672Z,0.75
2023-02-02T00:52:32.802Z,0.74
2023-02-02T00:55:03.706Z,0.92
2023-02-02T00:57:33.369Z,0.94
2023-02-02T01:00:00.490Z,0.80
2023-02-02T01:02:27.726Z,0.79
2023-02-02T01:05:00.760Z,0.88
2023-02-02T01:07:27.660Z,0.70
2023-02-02T01:09:56.206Z,0.59
2023-02-02T01:12:23.192Z,1.05
2023-02-02T01:14:50.138Z,1.19
2023-02-02T01:17:17.047Z,1.11
2023-02-02T01:19:44.202Z,1.00
2023-02-02T01:22:11.928Z,0.95
2023-02-02T01:24:38.941Z,1.10
2023-02-02T01:27:05.947Z,1.23
2023-02-02T01:29:32.838Z,1.26
2023-02-02T01:32:06.487Z,1.38
2023-02-02T01:34:43.798Z,1.38
2023-02-02T01:37:11.416Z,1.45
2023-02-02T01:39:38.322Z,1.38
2023-02-02T01:42:13.949Z,1.44
2023-02-02T01:44:55.947Z,1.44
2023-02-02T01:47:29.638Z,1.40
2023-02-02T01:49:56.973Z,1.36
2023-02-02T01:52:27.764Z,1.29
2023-02-02T01:55:08.692Z,1.24
2023-02-02T01:57:44.108Z,1.22
2023-02-02T02:00:14.711Z,1.27
2023-02-02T02:02:45.920Z,1.20
2023-02-02T02:05:18.697Z,1.10
2023-02-02T02:07:50.503Z,1.04
2023-02-02T02:10:18.909Z,1.13
2023-02-02T02:12:48.425Z,0.91
2023-02-02T02:15:34.455Z,0.75
2023-02-02T02:18:20.136Z,0.69
2023-02-02T02:21:43.507Z,0.78
2023-02-02T02:24:59.519Z,0.76
2023-02-02T02:27:48.478Z,0.72
2023-02-02T02:30:36.192Z,0.68
2023-02-02T02:33:03.131Z,0.71
2023-02-02T02:35:51.349Z,0.63
2023-02-02T02:38:27.334Z,0.60
2023-02-02T02:40:58.535Z,0.66
2023-02-02T02:43:33.166Z,0.54
2023-02-02T02:46:00.647Z,0.46
2023-02-02T02:48:29.835Z,0.68
2023-02-02T02:51:07.783Z,0.67
2023-02-02T02:53:37.469Z,0.72
2023-02-02T02:56:28.738Z,0.52
2023-02-02T02:59:06.646Z,0.52
2023-02-02T03:02:03.255Z,0.34
2023-02-02T03:04:47.459Z,0.23
2023-02-02T03:07:26.207Z,0.17
2023-02-02T03:09:55.879Z,0.24
2023-02-02T03:12:23.350Z,0.15
2023-02-02T03:14:50.302Z,0.11
2023-02-02T03:17:17.148Z,0.06
2023-02-02T03:19:44.017Z,0.13
2023-02-02T03:22:10.847Z,0.15
2023-02-02T03:24:37.677Z,-0.02
2023-02-02T03:27:04.696Z,0.35
2023-02-02T03:29:31.776Z,0.43
2023-02-02T03:31:58.708Z,0.23
2023-02-02T03:34:25.529Z,0.35
2023-02-02T03:36:52.381Z,0.38
2023-02-02T03:39:20.075Z,0.24
2023-02-02T03:41:46.890Z,0.21
2023-02-02T03:44:13.797Z,0.26
2023-02-02T03:46:40.557Z,0.28
2023-02-02T03:49:07.537Z,0.15
2023-02-02T03:51:34.440Z,0.10
2023-02-02T03:54:07.419Z,0.34
2023-02-02T03:56:35.155Z,0.43
2023-02-02T03:59:02.177Z,0.40
2023-02-02T04:01:30.249Z,0.48
2023-02-02T04:03:58.885Z,0.53
2023-02-02T04:06:26.294Z,0.51
2023-02-02T04:08:56.047Z,0.51
2023-02-02T04:11:33.071Z,0.47
2023-02-02T04:14:04.481Z,0.53
2023-02-02T04:16:39.484Z,0.42
2023-02-02T04:19:13.255Z,0.50
2023-02-02T04:21:41.533Z,0.53
2023-02-02T04:24:15.373Z,0.46
2023-02-02T04:26:43.760Z,0.43
2023-02-02T04:29:26.687Z,0.51
2023-02-02T04:32:05.060Z,0.41
2023-02-02T04:34:35.345Z,0.39
2023-02-02T04:37:12.194Z,0.27
2023-02-02T04:42:27.982Z,0.20
2023-02-02T04:45:02.141Z,0.19
2023-02-02T04:47:29.217Z,0.24
2023-02-02T04:49:59.819Z,0.27
2023-02-02T04:52:27.666Z,0.41
2023-02-02T04:54:55.180Z,0.43
2023-02-02T04:57:23.548Z,0.29
2023-02-02T04:59:51.441Z,0.34
2023-02-02T05:02:20.185Z,0.38
2023-02-02T05:04:50.311Z,0.58
2023-02-02T05:07:21.465Z,0.64
2023-02-02T05:10:03.432Z,0.34
2023-02-02T05:12:31.467Z,0.05
2023-02-02T05:15:01.221Z,-0.09
2023-02-02T05:17:28.156Z,-0.24
2023-02-02T05:19:54.995Z,-0.25
2023-02-02T05:22:21.864Z,-0.06
2023-02-02T05:24:48.699Z,-0.03
2023-02-02T05:27:15.543Z,-0.10
2023-02-02T05:29:42.344Z,-0.08
2023-02-02T05:32:09.265Z,-0.16
2023-02-02T05:34:36.108Z,-0.20
2023-02-02T05:37:03.014Z,-0.24
2023-02-02T05:39:29.879Z,-0.15
2023-02-02T05:41:56.689Z,0.04
2023-02-02T05:44:23.555Z,0.01
2023-02-02T05:46:50.488Z,-0.12
2023-02-02T05:49:17.365Z,0.07
2023-02-02T05:51:48.601Z,0.18
2023-02-02T05:54:20.697Z,0.31
2023-02-02T05:56:49.419Z,0.43
2023-02-02T05:59:17.606Z,0.50
2023-02-02T06:01:47.949Z,0.59
2023-02-02T06:04:15.403Z,0.58
2023-02-02T06:06:42.387Z,0.62
2023-02-02T06:09:10.741Z,0.58
2023-02-02T06:11:39.603Z,0.54
2023-02-02T06:14:07.873Z,0.34
2023-02-02T06:16:34.877Z,0.14
2023-02-02T06:19:01.781Z,0.13
2023-02-02T06:21:31.326Z,0.19
2023-02-02T06:23:59.561Z,0.28
2023-02-02T06:26:27.072Z,0.35
2023-02-02T06:28:54.898Z,0.34
2023-02-02T06:31:22.635Z,0.47
2023-02-02T06:33:55.254Z,0.34
2023-02-02T06:36:23.030Z,0.38
2023-02-02T06:38:54.459Z,0.27
2023-02-02T06:41:21.896Z,0.26
2023-02-02T06:43:49.446Z,0.27
2023-02-02T06:46:16.685Z,0.48
2023-02-02T06:48:44.036Z,0.61
2023-02-02T06:51:11.060Z,0.70
2023-02-02T06:53:37.827Z,0.64
2023-02-02T06:56:07.464Z,0.55
2023-02-02T06:58:34.928Z,0.65
2023-02-02T07:01:11.997Z,0.70
2023-02-02T07:03:41.385Z,0.61
2023-02-02T07:06:12.847Z,0.51
2023-02-02T07:08:39.935Z,0.34
2023-02-02T07:11:14.001Z,0.21
2023-02-02T07:13:47.111Z,0.13
2023-02-02T07:16:15.366Z,0.14
2023-02-02T07:18:47.653Z,0.20
2023-02-02T07:21:22.414Z,0.37
2023-02-02T07:23:50.330Z,0.54
2023-02-02T07:26:19.436Z,0.72
2023-02-02T07:28:47.196Z,0.90
2023-02-02T07:31:23.223Z,0.97
2023-02-02T07:33:50.973Z,1.04
2023-02-02T07:36:20.100Z,1.14
2023-02-02T07:38:48.758Z,1.26
2023-02-02T07:41:16.250Z,1.38
2023-02-02T07:43:43.602Z,1.58
2023-02-02T07:46:13.160Z,1.73
2023-02-02T07:48:40.968Z,1.88
2023-02-02T07:51:11.417Z,2.09
2023-02-02T07:53:38.394Z,2.22
2023-02-02T07:56:14.451Z,2.36
2023-02-02T07:58:43.157Z,2.48
2023-02-02T08:01:12.301Z,2.54
2023-02-02T08:03:39.855Z,2.54
2023-02-02T08:06:37.329Z,2.41
2023-02-02T08:09:07.821Z,2.53
2023-02-02T08:11:36.669Z,2.62
2023-02-02T08:14:04.617Z,2.69
2023-02-02T08:16:33.212Z,2.75
2023-02-02T08:19:00.370Z,2.82
2023-02-02T08:21:27.377Z,2.91
2023-02-02T08:23:54.372Z,3.06
2023-02-02T08:26:27.611Z,3.11
2023-02-02T08:29:00.966Z,3.20
2023-02-02T08:31:36.669Z,3.27
2023-02-02T08:34:04.811Z,3.41
2023-02-02T08:36:32.202Z,3.55
2023-02-02T08:39:04.242Z,3.57
2023-02-02T08:41:31.638Z,3.61
2023-02-02T08:43:58.757Z,3.73
2023-02-02T08:46:26.048Z,3.80
2023-02-02T08:48:52.816Z,3.76
2023-02-02T08:51:20.528Z,3.63
2023-02-02T08:53:47.919Z,3.68
2023-02-02T08:56:16.184Z,3.86
2023-02-02T08:58:52.837Z,3.88
2023-02-02T09:01:22.656Z,4.02
2023-02-02T09:03:53.049Z,4.16
2023-02-02T09:06:22.424Z,4.25
2023-02-02T09:08:49.257Z,4.15
2023-02-02T09:11:19.239Z,3.96
2023-02-02T09:13:51.347Z,3.87
2023-02-02T09:16:22.723Z,4.07
2023-02-02T09:18:49.596Z,4.24
2023-02-02T09:21:18.517Z,4.32
2023-02-02T09:23:47.095Z,4.32
2023-02-02T09:26:23.494Z,4.31
2023-02-02T09:28:54.320Z,4.53
2023-02-02T09:31:24.358Z,4.54
2023-02-02T09:33:51.810Z,4.62
2023-02-02T09:36:25.036Z,4.51
2023-02-02T09:38:52.020Z,4.67
2023-02-02T09:41:37.119Z,4.80
2023-02-02T09:44:35.133Z,4.84
2023-02-02T09:47:43.512Z,5.04
2023-02-02T09:50:34.517Z,5.28
2023-02-02T09:53:05.630Z,5.42
2023-02-02T09:55:46.305Z,5.51
2023-02-02T09:58:24.422Z,5.44
2023-02-02T10:00:57.060Z,5.81
2023-02-02T10:03:30.172Z,6.05
2023-02-02T10:06:26.184Z,5.96
2023-02-02T10:08:57.593Z,6.06
2023-02-02T10:11:41.304Z,6.11
2023-02-02T10:14:20.637Z,6.33
2023-02-02T10:16:51.032Z,6.35
2023-02-02T10:19:21.313Z,6.23
2023-02-02T10:22:13.598Z,6.03
2023-02-02T10:24:40.643Z,5.96
2023-02-02T10:27:14.303Z,6.21
2023-02-02T10:30:20.010Z,6.27
2023-02-02T10:33:05.254Z,6.03
2023-02-02T10:35:40.719Z,6.04
2023-02-02T10:38:37.692Z,6.38
2023-02-02T10:41:15.847Z,6.54
2023-02-02T10:44:01.624Z,6.68
2023-02-02T10:46:45.762Z,6.65
2023-02-02T10:49:24.418Z,6.91
2023-02-02T10:52:15.360Z,6.98
2023-02-02T10:54:58.418Z,6.98
2023-02-02T10:57:34.937Z,7.24
2023-02-02T11:00:33.154Z,7.67
2023-02-02T11:03:04.714Z,8.08
2023-02-02T11:05:50.279Z,8.10
2023-02-02T11:08:28.784Z,8.44
2023-02-02T11:10:58.497Z,8.03
2023-02-02T11:13:37.276Z,7.62
2023-02-02T11:16:16.384Z,7.64
2023-02-02T11:18:47.181Z,7.67
2023-02-02T11:21:32.280Z,7.72
2023-02-02T11:24:14.419Z,7.12
2023-02-02T11:27:02.013Z,7.44
2023-02-02T11:29:41.271Z,7.58
2023-02-02T11:32:35.720Z,7.55
2023-02-02T11:35:08.669Z,7.27
2023-02-02T11:37:39.015Z,7.55
2023-02-02T11:40:24.749Z,7.66
2023-02-02T11:42:53.153Z,7.84
2023-02-02T11:45:30.517Z,7.91
2023-02-02T11:48:05.334Z,8.16
2023-02-02T11:50:32.511Z,8.15
2023-02-02T11:52:59.817Z,8.34
2023-02-02T11:55:31.568Z,8.41
2023-02-02T11:58:17.095Z,8.04
2023-02-02T12:00:48.939Z,8.26
2023-02-02T12:03:39.891Z,8.31
2023-02-02T12:06:24.726Z,8.52
2023-02-02T12:08:56.459Z,8.26
2023-02-02T12:11:35.417Z,8.17
2023-02-02T12:14:13.761Z,8.28
2023-02-02T12:16:59.987Z,8.75
2023-02-02T12:19:32.482Z,8.65
2023-02-02T12:22:05.008Z,8.68
2023-02-02T12:24:34.351Z,8.39
2023-02-02T12:27:25.403Z,8.51
2023-02-02T12:30:18.958Z,8.73
2023-02-02T12:32:58.343Z,8.84
2023-02-02T12:35:32.689Z,8.96
2023-02-02T12:38:09.181Z,9.35
2023-02-02T12:41:17.585Z,9.62
2023-02-02T12:43:48.213Z,9.90
2023-02-02T12:46:44.864Z,9.79
2023-02-02T12:49:31.915Z,10.27
2023-02-02T12:52:37.941Z,10.38
2023-02-02T12:55:18.239Z,9.99
2023-02-02T12:58:02.463Z,9.71
2023-02-02T13:00:51.252Z,10.18
2023-02-02T13:03:34.318Z,10.19
2023-02-02T13:06:10.731Z,10.06
2023-02-02T13:08:52.055Z,9.89
2023-02-02T13:11:42.723Z,9.72
2023-02-02T13:14:20.681Z,9.93
2023-02-02T13:16:51.796Z,9.61
2023-02-02T13:19:46.399Z,9.61
2023-02-02T13:22:20.811Z,9.75
2023-02-02T13:24:51.435Z,9.68
2023-02-02T13:27:21.651Z,9.41
2023-02-02T13:30:23.104Z,9.46
2023-02-02T13:32:53.744Z,9.65
2023-02-02T13:35:28.956Z,9.68
2023-02-02T13:38:16.792Z,9.77
2023-02-02T13:40:44.524Z,9.69
2023-02-02T13:43:39.945Z,9.77
2023-02-02T13:46:12.698Z,9.89
2023-02-02T13:49:13.606Z,9.77
2023-02-02T13:51:53.987Z,9.92
2023-02-02T13:54:44.783Z,9.86
2023-02-02T13:57:53.187Z,9.94
2023-02-02T14:00:29.541Z,10.19
2023-02-02T14:03:04.206Z,9.82
2023-02-02T14:05:41.464Z,9.59
2023-02-02T14:08:19.531Z,9.38
2023-02-02T14:10:52.294Z,9.62
2023-02-02T14:14:04.671Z,9.67
2023-02-02T14:16:52.547Z,9.67
2023-02-02T14:19:31.191Z,9.70
2023-02-02T14:22:01.720Z,9.56
2023-02-02T14:24:29.727Z,9.48
2023-02-02T14:27:20.555Z,9.55
2023-02-02T14:29:47.513Z,9.57
2023-02-02T14:32:29.624Z,9.37
2023-02-02T14:35:08.688Z,9.19
2023-02-02T14:37:54.942Z,9.28
2023-02-02T14:40:34.001Z,9.34
2023-02-02T14:43:34.301Z,9.23
2023-02-02T14:46:13.098Z,9.34
2023-02-02T14:49:03.105Z,9.40
2023-02-02T14:51:33.448Z,9.12
2023-02-02T14:54:06.586Z,9.09
2023-02-02T14:56:40.670Z,9.14
2023-02-02T14:59:20.246Z,9.08
2023-02-02T15:01:59.951Z,8.96
2023-02-02T15:04:28.383Z,9.00
2023-02-02T15:06:56.098Z,8.85
2023-02-02T15:09:31.349Z,8.92
2023-02-02T15:12:10.872Z,8.96
2023-02-02T15:14:53.140Z,8.78
2023-02-02T15:17:22.768Z,8.64
2023-02-02T15:20:01.645Z,8.45
2023-02-02T15:22:56.659Z,8.36
2023-02-02T15:25:24.031Z,8.50
2023-02-02T15:28:19.204Z,8.44
2023-02-02T15:30:51.697Z,8.40
2023-02-02T15:33:28.704Z,8.29
2023-02-02T15:35:59.318Z,8.20
2023-02-02T15:38:34.850Z,8.19
2023-02-02T15:41:21.855Z,8.09
2023-02-02T15:43:50.498Z,8.05
2023-02-02T15:46:24.699Z,8.02
2023-02-02T15:49:33.776Z,7.92
2023-02-02T15:52:25.782Z,7.97
2023-02-02T15:54:53.756Z,7.89
2023-02-02T15:57:28.504Z,7.76
2023-02-02T15:59:55.994Z,7.70
2023-02-02T16:02:36.894Z,7.61
2023-02-02T16:05:40.951Z,7.62
2023-02-02T16:08:16.604Z,7.64
2023-02-02T16:10:46.283Z,7.52
2023-02-02T16:13:25.319Z,7.55
2023-02-02T16:16:29.585Z,7.48
2023-02-02T16:19:14.229Z,7.46
2023-02-02T16:21:54.699Z,7.44
2023-02-02T16:24:28.518Z,7.39
2023-02-02T16:26:59.048Z,7.36
2023-02-02T16:29:28.188Z,7.33
2023-02-02T16:31:56.265Z,7.33
2023-02-02T16:34:41.229Z,7.28
2023-02-02T16:37:15.128Z,7.28
2023-02-02T16:39:42.226Z,7.34
2023-02-02T16:42:11.069Z,7.21
2023-02-02T16:44:40.193Z,7.08
2023-02-02T16:47:28.271Z,6.96
2023-02-02T16:50:10.086Z,6.81
2023-02-02T16:52:53.168Z,6.77
2023-02-02T16:55:21.538Z,6.72
2023-02-02T16:57:50.755Z,6.62
2023-02-02T17:00:23.623Z,6.59
2023-02-02T17:02:55.963Z,6.48
2023-02-02T17:05:27.513Z,6.47
2023-02-02T17:07:58.554Z,6.38
2023-02-02T17:10:37.342Z,6.39
2023-02-02T17:13:30.225Z,6.38
2023-02-02T17:15:58.158Z,6.35
2023-02-02T17:18:25.610Z,6.34
2023-02-02T17:21:03.809Z,6.22
2023-02-02T17:23:32.714Z,6.15
2023-02-02T17:25:59.760Z,6.14
2023-02-02T17:28:27.375Z,6.07
2023-02-02T17:31:07.477Z,6.04
2023-02-02T17:33:35.016Z,6.00
2023-02-02T17:36:02.635Z,5.96
2023-02-02T17:38:29.534Z,5.93
2023-02-02T17:41:01.237Z,5.92
2023-02-02T17:43:32.435Z,5.89
2023-02-02T17:45:59.924Z,5.87
2023-02-02T17:48:26.862Z,5.83
2023-02-02T17:50:53.924Z,5.83
2023-02-02T17:53:22.549Z,5.89
2023-02-02T17:55:50.495Z,5.80
2023-02-02T17:58:18.188Z,5.79
2023-02-02T18:00:53.989Z,5.71
2023-02-02T18:03:26.649Z,5.69
2023-02-02T18:05:53.770Z,5.66
2023-02-02T18:08:20.611Z,5.65
2023-02-02T18:10:47.497Z,5.62
2023-02-02T18:13:16.331Z,5.60
2023-02-02T18:15:44.113Z,5.59
2023-02-02T18:18:14.753Z,5.60
2023-02-02T18:20:43.129Z,5.63
2023-02-02T18:23:10.718Z,5.66
2023-02-02T18:25:38.975Z,5.71
2023-02-02T18:28:10.571Z,5.73
2023-02-02T18:30:41.396Z,5.77
2023-02-02T18:33:12.003Z,5.82
2023-02-02T18:35:46.460Z,5.84
2023-02-02T18:38:14.779Z,5.80
2023-02-02T18:40:42.310Z,5.79
2023-02-02T18:43:09.393Z,5.77
2023-02-02T18:45:36.748Z,5.73
2023-02-02T18:48:04.164Z,5.81
2023-02-02T18:50:31.012Z,5.84
2023-02-02T18:52:57.948Z,5.84
2023-02-02T18:55:25.240Z,5.89
2023-02-02T18:57:52.855Z,5.94
2023-02-02T19:00:20.333Z,6.02
2023-02-02T19:02:47.329Z,6.08
2023-02-02T19:05:37.189Z,6.15
2023-02-02T19:08:05.969Z,6.17
2023-02-02T19:10:32.875Z,6.15
2023-02-02T19:13:05.513Z,6.12
2023-02-02T19:15:35.498Z,6.05
2023-02-02T19:18:03.313Z,6.03
2023-02-02T19:20:30.969Z,5.89
2023-02-02T19:23:18.398Z,5.72
2023-02-02T19:25:51.229Z,5.62
2023-02-02T19:28:18.395Z,5.42
2023-02-02T19:30:45.628Z,5.42
2023-02-02T19:33:14.426Z,5.46
2023-02-02T19:35:45.128Z,5.46
2023-02-02T19:38:16.813Z,5.33
2023-02-02T19:40:44.770Z,5.24
2023-02-02T19:43:14.057Z,5.22
2023-02-02T19:45:41.295Z,5.18
2023-02-02T19:48:25.057Z,5.23
2023-02-02T19:50:52.600Z,5.24
2023-02-02T19:53:25.213Z,5.17
2023-02-02T19:55:52.796Z,5.18
2023-02-02T19:58:19.633Z,5.08
2023-02-02T20:00:49.269Z,4.92
2023-02-02T20:03:26.408Z,4.87
2023-02-02T20:05:56.091Z,4.86
2023-02-02T20:08:26.027Z,4.87
2023-02-02T20:10:55.113Z,4.86
2023-02-02T20:13:23.720Z,4.80
2023-02-02T20:15:54.670Z,4.89
2023-02-02T20:18:46.083Z,4.81
2023-02-02T20:21:22.788Z,4.64
2023-02-02T20:23:49.739Z,4.66
2023-02-02T20:26:36.685Z,4.74
2023-02-02T20:29:20.676Z,4.77
2023-02-02T20:31:48.282Z,4.80
2023-02-02T20:34:31.127Z,4.73
2023-02-02T20:36:59.220Z,4.83
2023-02-02T20:39:28.833Z,4.72
2023-02-02T20:41:57.393Z,4.84
2023-02-02T20:44:26.267Z,4.72
2023-02-02T20:46:55.439Z,4.76
2023-02-02T20:49:25.714Z,4.92
2023-02-02T20:51:56.746Z,4.92
2023-02-02T20:54:24.765Z,4.92
2023-02-02T20:56:52.418Z,4.99
2023-02-02T20:59:20.322Z,4.88
2023-02-02T21:01:49.933Z,5.07
2023-02-02T21:04:18.468Z,5.05
2023-02-02T21:06:46.504Z,5.17
2023-02-02T21:09:13.808Z,5.36
2023-02-02T21:11:40.586Z,5.42
2023-02-02T21:14:07.452Z,5.47
2023-02-02T21:16:34.366Z,5.26
2023-02-02T21:19:01.301Z,5.20
2023-02-02T21:21:28.432Z,5.23
2023-02-02T21:23:56.433Z,5.23
2023-02-02T21:26:27.296Z,5.29
2023-02-02T21:28:54.279Z,5.30
2023-02-02T21:31:21.384Z,4.98
2023-02-02T21:33:50.702Z,4.97
2023-02-02T21:36:31.750Z,4.80
2023-02-02T21:39:29.196Z,4.75
2023-02-02T21:42:20.689Z,4.48
2023-02-02T21:44:59.004Z,4.39
2023-02-02T21:47:34.337Z,4.19
2023-02-02T21:50:26.052Z,4.14
2023-02-02T21:53:12.493Z,4.03
2023-02-02T21:55:40.886Z,4.08
2023-02-02T21:58:34.503Z,3.95
2023-02-02T22:01:27.310Z,4.01
2023-02-02T22:03:54.326Z,4.03
2023-02-02T22:06:21.015Z,3.99
2023-02-02T22:08:49.378Z,3.92
2023-02-02T22:11:31.314Z,3.88
2023-02-02T22:14:11.879Z,3.92
2023-02-02T22:16:44.824Z,4.05
2023-02-02T22:19:31.881Z,4.01
2023-02-02T22:22:18.426Z,4.09
2023-02-02T22:24:48.562Z,4.12
2023-02-02T22:27:21.798Z,4.23
2023-02-02T22:29:49.576Z,4.20
2023-02-02T22:32:16.485Z,4.23
2023-02-02T22:34:43.360Z,4.27
2023-02-02T22:37:10.181Z,4.25
2023-02-02T22:39:42.901Z,4.35
2023-02-02T22:42:10.973Z,4.34
2023-02-02T22:44:37.935Z,4.24
2023-02-02T22:47:05.096Z,4.29
2023-02-02T22:49:31.960Z,4.33
2023-02-02T22:51:58.899Z,4.39
2023-02-02T22:54:25.775Z,4.35
2023-02-02T22:56:52.661Z,4.36
2023-02-02T22:59:19.584Z,4.39
2023-02-02T23:01:46.411Z,4.50
2023-02-02T23:04:13.165Z,4.81
2023-02-02T23:06:41.667Z,4.74
2023-02-02T23:09:08.525Z,4.65
2023-02-02T23:11:35.494Z,4.67
2023-02-02T23:14:02.319Z,4.67
2023-02-02T23:16:29.270Z,4.82
2023-02-02T23:18:56.065Z,4.79
2023-02-02T23:21:22.892Z,4.72
2023-02-02T23:23:49.784Z,4.87
2023-02-02T23:26:16.742Z,5.03
2023-02-02T23:28:43.524Z,4.90
2023-02-02T23:31:10.503Z,4.87
2023-02-02T23:33:37.328Z,4.92
2023-02-02T23:36:04.624Z,4.78
2023-02-02T23:38:31.450Z,4.70
2023-02-02T23:40:58.530Z,4.69
2023-02-02T23:43:25.362Z,4.67
2023-02-02T23:45:52.601Z,4.54
2023-02-02T23:48:20.067Z,4.43
2023-02-02T23:50:47.367Z,4.43
2023-02-02T23:53:15.309Z,4.43
2023-02-02T23:55:43.547Z,4.45
2023-02-02T23:58:11.061Z,4.67
